createdAt,value
2018-11-10T00:01:32.316Z,100255.54
2018-11-10T00:03:57.473Z,100256.97
2018-11-10T00:06:22.636Z,100250.48
2018-11-10T00:08:47.854Z,100250.35
2018-11-10T00:11:12.994Z,100248.92
2018-11-10T00:13:38.138Z,100243.03
2018-11-10T00:16:03.322Z,100246.14
2018-11-10T00:18:28.557Z,100237.67
2018-11-10T00:20:53.697Z,100235.72
2018-11-10T00:23:18.837Z,100231.83
2018-11-10T00:25:44.010Z,100235.09
2018-11-10T00:28:09.125Z,100230.83
2018-11-10T00:30:34.247Z,100232.39
2018-11-10T00:33:18.329Z,100222.02
2018-11-10T00:35:43.449Z,100219.91
2018-11-10T00:38:08.640Z,100225.70
2018-11-10T00:40:33.807Z,100228.81
2018-11-10T00:42:58.921Z,100228.49
2018-11-10T00:45:24.076Z,100231.59
2018-11-10T00:47:49.192Z,100225.30
2018-11-10T00:50:14.354Z,100216.31
2018-11-10T00:52:39.598Z,100215.57
2018-11-10T00:55:23.676Z,100219.50
2018-11-10T00:57:48.921Z,100223.34
2018-11-10T01:00:14.460Z,100217.96
2018-11-10T01:02:39.590Z,100216.89
2018-11-10T01:05:04.728Z,100106.38
2018-11-10T01:07:30.083Z,100216.89
2018-11-10T01:09:55.223Z,100219.50
2018-11-10T01:12:20.374Z,100213.02
2018-11-10T01:14:45.549Z,100207.98
2018-11-10T01:17:10.760Z,100203.77
2018-11-10T01:19:35.958Z,100191.20
2018-11-10T01:22:01.150Z,100192.45
2018-11-10T01:24:26.343Z,100195.30
2018-11-10T01:26:51.571Z,100186.53
2018-11-10T01:29:16.767Z,100181.98
2018-11-10T01:31:42.330Z,100182.94
2018-11-10T01:34:07.557Z,100180.90
2018-11-10T01:36:32.746Z,100131.63
2018-11-10T01:38:58.911Z,100179.63
2018-11-10T01:41:24.097Z,100173.73
2018-11-10T01:43:49.226Z,100178.05
2018-11-10T01:46:14.576Z,100165.72
2018-11-10T01:48:39.891Z,100169.39
2018-11-10T01:51:05.389Z,100167.02
2018-11-10T01:53:30.521Z,100160.30
2018-11-10T01:55:55.641Z,100156.71
2018-11-10T01:58:20.786Z,100153.85
2018-11-10T02:00:45.880Z,100148.95
2018-11-10T02:03:30.033Z,100163.60
2018-11-10T02:05:55.387Z,100150.05
2018-11-10T02:08:20.582Z,100159.09
2018-11-10T02:10:45.686Z,100151.08
2018-11-10T02:13:10.835Z,100146.41
2018-11-10T02:15:36.015Z,100133.89
2018-11-10T02:18:01.151Z,100132.68
2018-11-10T02:20:26.298Z,100127.76
2018-11-10T02:22:51.408Z,100125.81
2018-11-10T02:25:35.487Z,100115.83
2018-11-10T02:28:00.660Z,100123.59
2018-11-10T02:30:25.793Z,100129.15
2018-11-10T02:32:50.903Z,100122.37
2018-11-10T02:35:16.007Z,100126.25
2018-11-10T02:37:41.485Z,100115.45
2018-11-10T02:40:07.574Z,100119.51
2018-11-10T02:42:32.668Z,100121.86
2018-11-10T02:44:57.808Z,100109.60
2018-11-10T02:47:22.924Z,100121.05
2018-11-10T02:49:48.128Z,100099.38
2018-11-10T02:54:49.279Z,100093.91
2018-11-10T02:57:14.444Z,100098.39
2018-11-10T02:59:39.572Z,100088.16
2018-11-10T03:02:04.682Z,100085.70
2018-11-10T03:04:29.787Z,100083.23
2018-11-10T03:07:13.867Z,100069.80
2018-11-10T03:09:38.976Z,100066.09
2018-11-10T03:12:04.124Z,100065.23
2018-11-10T03:14:29.207Z,100058.72
2018-11-10T03:16:54.286Z,100049.23
2018-11-10T03:19:19.430Z,100048.23
2018-11-10T03:21:44.589Z,100036.03
2018-11-10T03:24:09.813Z,100032.95
2018-11-10T03:26:34.911Z,100047.78
2018-11-10T03:29:00.054Z,100039.32
2018-11-10T03:31:25.167Z,100043.30
2018-11-10T03:33:50.250Z,100039.02
2018-11-10T03:36:15.412Z,100032.05
2018-11-10T03:38:40.528Z,100037.19
2018-11-10T03:41:05.805Z,100036.27
2018-11-10T03:43:30.930Z,100028.84
2018-11-10T03:45:56.084Z,100028.23
2018-11-10T03:48:21.263Z,100024.52
2018-11-10T03:50:46.317Z,100021.73
2018-11-10T03:53:11.437Z,100010.02
2018-11-10T03:55:36.506Z,100016.83
2018-11-10T03:58:01.605Z,100018.06
2018-11-10T04:00:26.700Z,100009.83
2018-11-10T04:02:51.774Z,100006.16
2018-11-10T04:05:16.864Z,99999.70
2018-11-10T04:07:43.235Z,99999.99
2018-11-10T04:10:08.334Z,100003.83
2018-11-10T04:12:33.433Z,100000.22
2018-11-10T04:14:58.490Z,99990.27
2018-11-10T04:17:26.259Z,99985.78
2018-11-10T04:19:51.330Z,99988.08
2018-11-10T04:22:21.331Z,99989.41
2018-11-10T04:24:46.424Z,99977.91
2018-11-10T04:27:30.721Z,99991.73
2018-11-10T04:29:55.847Z,99985.17
2018-11-10T04:32:20.928Z,99986.87
2018-11-10T04:34:45.991Z,99988.88
2018-11-10T04:40:06.888Z,99986.56
2018-11-10T04:42:31.987Z,99982.20
2018-11-10T04:44:57.041Z,99971.56
2018-11-10T04:47:22.149Z,99966.74
2018-11-10T04:49:47.246Z,99965.52
2018-11-10T04:52:12.296Z,99969.40
2018-11-10T04:54:37.390Z,99964.92
2018-11-10T04:57:02.474Z,99952.69
2018-11-10T04:59:27.572Z,99964.14
2018-11-10T05:01:52.683Z,99956.27
2018-11-10T05:04:17.752Z,99951.79
2018-11-10T05:06:42.873Z,99949.80
2018-11-10T05:09:09.475Z,99941.92
2018-11-10T05:11:34.554Z,99940.83
2018-11-10T05:13:59.665Z,99938.19
2018-11-10T05:16:24.778Z,99933.51
2018-11-10T05:18:49.932Z,99934.90
2018-11-10T05:21:15.081Z,99937.56
2018-11-10T05:26:18.982Z,99931.56
2018-11-10T05:28:44.067Z,99929.84
2018-11-10T05:31:09.242Z,99925.36
2018-11-10T05:33:34.341Z,99934.08
2018-11-10T05:35:59.484Z,99927.84
2018-11-10T05:38:24.784Z,99928.92
2018-11-10T05:43:45.368Z,99928.75
2018-11-10T05:46:10.495Z,99926.34
2018-11-10T05:48:35.589Z,99926.75
2018-11-10T05:51:00.683Z,99920.70
2018-11-10T05:53:25.800Z,99922.13
2018-11-10T05:58:28.507Z,99907.77
2018-11-10T06:01:12.552Z,99908.66
2018-11-10T06:03:38.063Z,99910.22
2018-11-10T06:06:03.269Z,99903.59
2018-11-10T06:08:28.371Z,99906.95
2018-11-10T06:10:53.478Z,99895.69
2018-11-10T06:13:18.585Z,99895.34
2018-11-10T06:15:43.741Z,99897.22
2018-11-10T06:18:27.820Z,99898.30
2018-11-10T06:20:52.937Z,99893.47
2018-11-10T06:23:37.096Z,99900.92
2018-11-10T06:26:02.418Z,99905.43
2018-11-10T06:28:27.533Z,99912.22
2018-11-10T06:30:52.677Z,99907.57
2018-11-10T06:33:17.816Z,99906.12
2018-11-10T06:35:42.954Z,99907.98
2018-11-10T06:38:08.135Z,99916.53
2018-11-10T06:40:33.384Z,99909.52
2018-11-10T06:42:58.498Z,99919.65
2018-11-10T06:45:23.630Z,99919.73
2018-11-10T06:47:48.903Z,99924.66
2018-11-10T06:55:26.056Z,99939.47
2018-11-10T06:57:51.141Z,99945.16
2018-11-10T07:00:16.727Z,99947.23
2018-11-10T07:02:42.172Z,99930.61
2018-11-10T07:05:07.870Z,99935.88
2018-11-10T07:07:33.085Z,99936.66
2018-11-10T07:09:58.179Z,99933.47
2018-11-10T07:12:23.463Z,99939.03
2018-11-10T07:14:48.583Z,99932.03
2018-11-10T07:17:13.724Z,99925.66
2018-11-10T07:19:38.927Z,99925.05
2018-11-10T07:22:04.082Z,99921.34
2018-11-10T07:24:29.229Z,99928.03
2018-11-10T07:26:54.379Z,99922.94
2018-11-10T07:29:19.520Z,99913.61
2018-11-10T07:31:44.798Z,99908.71
2018-11-10T07:34:09.958Z,99903.92
2018-11-10T07:36:35.301Z,99898.61
2018-11-10T07:39:00.623Z,99900.34
2018-11-10T07:41:25.894Z,99894.13
2018-11-10T07:43:51.197Z,99899.28
2018-11-10T07:46:16.406Z,99904.79
2018-11-10T07:48:41.668Z,99903.45
2018-11-10T07:51:07.045Z,99887.84
2018-11-10T07:53:32.242Z,99885.03
2018-11-10T07:55:57.503Z,99880.69
2018-11-10T07:58:22.696Z,99888.09
2018-11-10T08:00:47.938Z,99889.34
2018-11-10T08:03:13.114Z,99886.89
2018-11-10T08:05:38.247Z,99890.56
2018-11-10T08:10:44.727Z,99883.61
2018-11-10T08:13:10.300Z,99891.81
2018-11-10T08:15:35.761Z,99888.42
2018-11-10T08:18:01.019Z,99887.84
2018-11-10T08:20:27.101Z,99892.73
2018-11-10T08:25:55.468Z,99893.38
2018-11-10T08:28:20.560Z,99884.59
2018-11-10T08:30:45.676Z,99883.04
2018-11-10T08:33:10.841Z,99881.47
2018-11-10T08:38:31.415Z,99884.42
2018-11-10T08:40:56.525Z,99881.31
2018-11-10T08:43:21.727Z,99877.43
2018-11-10T08:45:46.845Z,99880.55
2018-11-10T08:48:16.773Z,99877.88
2018-11-10T08:51:08.401Z,99885.30
2018-11-10T08:53:34.476Z,99885.88
2018-11-10T08:55:59.693Z,99889.78
2018-11-10T08:58:24.878Z,99891.04
2018-11-10T09:00:49.972Z,99896.00
2018-11-10T09:03:15.136Z,99896.02
2018-11-10T09:05:59.220Z,99909.16
2018-11-10T09:11:03.817Z,99930.64
2018-11-10T09:13:28.955Z,99917.70
2018-11-10T09:15:54.109Z,99934.49
2018-11-10T09:18:19.247Z,99946.83
2018-11-10T09:20:44.660Z,99967.72
2018-11-10T09:23:09.804Z,99983.44
2018-11-10T09:25:35.208Z,99983.47
2018-11-10T09:28:01.293Z,99976.19
2018-11-10T09:30:26.856Z,99997.84
2018-11-10T09:32:52.072Z,99989.03
2018-11-10T09:35:17.285Z,99997.51
2018-11-10T09:37:42.420Z,99999.38
2018-11-10T09:40:27.348Z,99992.11
2018-11-10T09:42:52.503Z,99985.89
2018-11-10T09:45:18.190Z,99973.04
2018-11-10T09:47:43.352Z,99964.16
2018-11-10T09:50:27.484Z,99965.86
2018-11-10T09:52:54.452Z,99961.00
2018-11-10T09:55:20.785Z,99950.88
2018-11-10T09:57:45.975Z,99948.36
2018-11-10T10:00:33.766Z,99928.16
2018-11-10T10:02:59.240Z,99931.88
2018-11-10T10:05:24.401Z,99932.95
2018-11-10T10:07:49.517Z,99933.44
2018-11-10T10:10:16.152Z,99938.63
2018-11-10T10:12:41.654Z,99933.13
2018-11-10T10:15:08.221Z,99935.91
2018-11-10T10:17:33.417Z,99917.83
2018-11-10T10:19:58.634Z,99927.29
2018-11-10T10:22:23.767Z,99912.86
2018-11-10T10:24:49.667Z,99926.09
2018-11-10T10:27:14.823Z,99930.47
2018-11-10T10:29:40.021Z,99940.16
2018-11-10T10:32:05.213Z,99925.14
2018-11-10T10:34:30.637Z,99935.52
2018-11-10T10:36:55.675Z,99940.74
2018-11-10T10:39:20.866Z,99945.38
2018-11-10T10:41:45.950Z,99942.67
2018-11-10T10:44:11.595Z,99924.80
2018-11-10T10:46:36.776Z,99918.58
2018-11-10T10:49:02.080Z,99930.88
2018-11-10T10:51:27.181Z,99930.91
2018-11-10T10:53:52.264Z,99931.16
2018-11-10T10:56:19.441Z,99921.66
2018-11-10T10:58:44.622Z,99930.70
2018-11-10T11:01:28.474Z,99913.19
2018-11-10T11:06:49.319Z,99920.39
2018-11-10T11:09:14.839Z,99913.73
2018-11-10T11:11:40.149Z,99911.73
2018-11-10T11:14:05.374Z,99915.60
2018-11-10T11:16:30.532Z,99907.54
2018-11-10T11:18:55.786Z,99908.84
2018-11-10T11:23:59.441Z,99909.23
2018-11-10T11:26:24.566Z,99909.42
2018-11-10T11:29:08.775Z,99906.82
2018-11-10T11:31:33.798Z,99904.28
2018-11-10T11:33:58.949Z,99895.81
2018-11-10T11:36:24.135Z,99896.56
2018-11-10T11:38:49.282Z,99898.00
2018-11-10T11:41:14.595Z,99891.88
2018-11-10T11:43:39.729Z,99889.45
2018-11-10T11:46:04.912Z,99886.42
2018-11-10T11:48:30.147Z,99895.85
2018-11-10T11:50:55.571Z,99899.06
2018-11-10T11:53:20.790Z,99893.34
2018-11-10T11:55:45.961Z,99893.23
2018-11-10T11:58:11.345Z,99899.67
2018-11-10T12:00:36.229Z,99901.19
2018-11-10T12:03:01.370Z,99897.59
2018-11-10T12:08:03.462Z,99890.11
2018-11-10T12:10:28.732Z,99889.85
2018-11-10T12:12:53.905Z,99880.61
2018-11-10T12:15:21.077Z,99873.86
2018-11-10T12:17:46.057Z,99875.20
2018-11-10T12:20:12.759Z,99874.25
2018-11-10T12:25:33.752Z,99867.30
2018-11-10T12:27:59.932Z,99855.11
2018-11-10T12:30:25.975Z,99864.50
2018-11-10T12:32:51.101Z,99862.39
2018-11-10T12:35:16.608Z,99854.88
2018-11-10T12:37:47.034Z,99861.42
2018-11-10T12:40:13.514Z,99864.70
2018-11-10T12:42:39.230Z,99859.19
2018-11-10T12:45:23.422Z,99865.81
2018-11-10T12:47:48.589Z,99867.26
2018-11-10T12:50:14.898Z,99857.47
2018-11-10T12:52:40.607Z,99852.64
2018-11-10T12:55:06.507Z,99849.22
2018-11-10T12:57:31.665Z,99853.05
2018-11-10T12:59:56.864Z,99850.20
2018-11-10T13:02:22.165Z,99847.57
2018-11-10T13:04:47.493Z,99849.95
2018-11-10T13:07:12.791Z,99848.97
2018-11-10T13:09:37.895Z,99848.80
2018-11-10T13:12:03.264Z,99839.15
2018-11-10T13:14:29.408Z,99844.06
2018-11-10T13:16:56.841Z,99840.52
2018-11-10T13:19:23.690Z,99844.16
2018-11-10T13:21:48.983Z,99853.09
2018-11-10T13:24:14.172Z,99843.27
2018-11-10T13:26:39.239Z,99850.20
2018-11-10T13:29:04.360Z,99849.75
2018-11-10T13:31:29.751Z,99855.73
2018-11-10T13:33:54.646Z,99848.41
2018-11-10T13:36:19.906Z,99849.75
2018-11-10T13:38:45.048Z,99847.84
2018-11-10T13:41:10.621Z,99860.80
2018-11-10T13:43:36.194Z,99861.42
2018-11-10T13:46:01.757Z,99859.48
2018-11-10T13:48:26.918Z,99858.47
2018-11-10T13:50:52.235Z,99861.81
2018-11-10T13:53:17.352Z,99855.02
2018-11-10T13:55:42.820Z,99856.56
2018-11-10T14:01:07.401Z,99854.45
2018-11-10T14:03:32.567Z,99855.95
2018-11-10T14:05:57.746Z,99859.72
2018-11-10T14:08:22.934Z,99859.08
2018-11-10T14:10:48.165Z,99857.24
2018-11-10T14:13:13.337Z,99859.33
2018-11-10T14:15:38.487Z,99860.62
2018-11-10T14:18:03.658Z,99861.52
2018-11-10T14:20:28.871Z,99857.41
2018-11-10T14:22:54.051Z,99861.06
2018-11-10T14:25:19.250Z,99858.42
2018-11-10T14:27:44.997Z,99857.60
2018-11-10T14:30:12.491Z,99862.67
2018-11-10T14:32:37.664Z,99861.73
2018-11-10T14:35:02.754Z,99867.05
2018-11-10T14:40:25.561Z,99859.39
2018-11-10T14:42:50.701Z,99852.73
2018-11-10T14:45:17.314Z,99853.95
2018-11-10T14:47:43.390Z,99838.94
2018-11-10T14:50:09.633Z,99839.11
2018-11-10T14:52:35.424Z,99844.45
2018-11-10T14:55:00.512Z,99848.20
2018-11-10T14:57:25.708Z,99858.06
2018-11-10T14:59:50.855Z,99858.78
2018-11-10T15:02:16.079Z,99853.34
2018-11-10T15:04:41.296Z,99851.38
2018-11-10T15:07:17.735Z,99850.84
2018-11-10T15:09:44.278Z,99847.76
2018-11-10T15:12:09.489Z,99858.64
2018-11-10T15:14:35.450Z,99860.91
2018-11-10T15:17:01.231Z,99857.63
2018-11-10T15:19:26.913Z,99854.78
2018-11-10T15:21:52.167Z,99855.41
2018-11-10T15:24:17.727Z,99861.81
2018-11-10T15:26:42.859Z,99862.19
2018-11-10T15:29:07.985Z,99868.34
2018-11-10T15:31:33.182Z,99863.21
2018-11-10T15:33:58.353Z,99870.70
2018-11-10T15:36:23.450Z,99871.22
2018-11-10T15:38:48.597Z,99882.02
2018-11-10T15:41:13.746Z,99866.22
2018-11-10T15:43:38.944Z,99872.67
2018-11-10T15:46:04.623Z,99870.91
2018-11-10T15:48:29.776Z,99859.05
2018-11-10T15:50:54.870Z,99864.80
2018-11-10T15:53:20.049Z,99872.45
2018-11-10T15:55:45.165Z,99874.42
2018-11-10T15:58:10.261Z,99877.83
2018-11-10T16:00:35.369Z,99878.00
2018-11-10T16:03:00.496Z,99874.42
2018-11-10T16:05:25.652Z,99870.19
2018-11-10T16:10:29.488Z,99877.88
2018-11-10T16:12:54.597Z,99875.64
2018-11-10T16:15:19.703Z,99865.77
2018-11-10T16:18:03.784Z,99872.37
2018-11-10T16:20:28.894Z,99872.34
2018-11-10T16:22:54.095Z,99872.61
2018-11-10T16:25:19.519Z,99870.11
2018-11-10T16:27:44.756Z,99875.15
2018-11-10T16:30:12.044Z,99874.00
2018-11-10T16:32:37.140Z,99883.69
2018-11-10T16:35:02.281Z,99884.42
2018-11-10T16:37:27.409Z,99873.59
2018-11-10T16:39:52.520Z,99879.00
2018-11-10T16:42:36.622Z,99883.52
2018-11-10T16:45:21.423Z,99874.31
2018-11-10T16:47:46.546Z,99869.83
2018-11-10T16:50:12.022Z,99869.75
2018-11-10T16:52:37.200Z,99879.83
2018-11-10T16:55:21.238Z,99884.33
2018-11-10T16:58:05.334Z,99890.66
2018-11-10T17:00:30.442Z,99875.31
2018-11-10T17:02:55.607Z,99881.64
2018-11-10T17:05:20.754Z,99885.66
2018-11-10T17:07:45.920Z,99880.08
2018-11-10T17:10:22.837Z,99887.86
2018-11-10T17:12:47.935Z,99891.44
2018-11-10T17:15:32.054Z,99892.70
2018-11-10T17:17:57.154Z,99880.08
2018-11-10T17:20:22.370Z,99889.92
2018-11-10T17:23:06.568Z,99890.54
2018-11-10T17:25:31.673Z,99879.14
2018-11-10T17:27:56.907Z,99878.58
2018-11-10T17:30:22.474Z,99884.08
2018-11-10T17:32:47.503Z,99881.55
2018-11-10T17:35:31.667Z,99880.70
2018-11-10T17:37:56.835Z,99884.72
2018-11-10T17:40:22.090Z,99878.88
2018-11-10T17:42:47.151Z,99875.31
2018-11-10T17:45:13.737Z,99867.91
2018-11-10T17:50:16.548Z,99881.63
2018-11-10T17:52:41.993Z,99888.34
2018-11-10T17:55:07.461Z,99880.45
2018-11-10T17:57:32.642Z,99873.64
2018-11-10T17:59:57.736Z,99879.25
2018-11-10T18:02:23.006Z,99869.03
2018-11-10T18:04:48.106Z,99876.45
2018-11-10T18:07:13.225Z,99870.23
2018-11-10T18:09:38.354Z,99875.17
2018-11-10T18:12:03.496Z,99875.22
2018-11-10T18:14:28.587Z,99867.04
2018-11-10T18:16:53.809Z,99861.27
2018-11-10T18:19:18.928Z,99864.05
2018-11-10T18:22:03.066Z,99871.52
2018-11-10T18:24:29.131Z,99866.06
2018-11-10T18:29:31.267Z,99876.22
2018-11-10T18:31:56.456Z,99867.92
2018-11-10T18:34:21.650Z,99867.07
2018-11-10T18:36:46.789Z,99865.48
2018-11-10T18:39:12.034Z,99852.89
2018-11-10T18:41:37.140Z,99858.67
2018-11-10T18:44:02.274Z,99854.73
2018-11-10T18:46:27.432Z,99857.96
2018-11-10T18:48:52.554Z,99859.86
2018-11-10T18:51:17.660Z,99862.37
2018-11-10T18:53:42.773Z,99869.44
2018-11-10T18:56:07.866Z,99884.16
2018-11-10T18:58:33.014Z,99892.10
2018-11-10T19:00:58.138Z,99884.27
2018-11-10T19:03:25.513Z,99886.41
2018-11-10T19:05:50.684Z,99884.42
2018-11-10T19:08:15.860Z,99883.19
2018-11-10T19:10:40.976Z,99863.02
2018-11-10T19:13:25.108Z,99864.83
2018-11-10T19:15:50.198Z,99864.05
2018-11-10T19:18:15.334Z,99895.41
2018-11-10T19:20:40.453Z,99893.65
2018-11-10T19:25:44.587Z,99876.52
2018-11-10T19:28:09.687Z,99867.69
2018-11-10T19:30:34.818Z,99865.70
2018-11-10T19:32:59.972Z,99863.23
2018-11-10T19:35:25.126Z,99855.87
2018-11-10T19:37:50.232Z,99877.00
2018-11-10T19:40:15.428Z,99879.22
2018-11-10T19:42:41.157Z,99873.43
2018-11-10T19:45:07.436Z,99888.23
2018-11-10T19:47:32.618Z,99888.94
2018-11-10T19:49:57.754Z,99888.85
2018-11-10T19:52:22.846Z,99885.88
2018-11-10T19:54:47.957Z,99884.97
2018-11-10T19:57:13.064Z,99900.33
2018-11-10T19:59:38.170Z,99911.13
2018-11-10T20:02:03.314Z,99905.27
2018-11-10T20:04:28.481Z,99911.39
2018-11-10T20:06:53.677Z,99910.48
2018-11-10T20:09:18.749Z,99906.08
2018-11-10T20:11:43.889Z,99899.09
2018-11-10T20:14:09.036Z,99906.67
2018-11-10T20:16:53.126Z,99906.25
2018-11-10T20:19:18.264Z,99860.55
2018-11-10T20:21:43.674Z,99901.55
2018-11-10T20:24:08.799Z,99899.06
2018-11-10T20:26:33.933Z,99897.09
2018-11-10T20:28:59.102Z,99901.14
2018-11-10T20:31:24.370Z,99900.13
2018-11-10T20:33:49.484Z,99894.29
2018-11-10T20:36:33.585Z,99879.66
2018-11-10T20:38:58.806Z,99881.14
2018-11-10T20:41:23.836Z,99893.92
2018-11-10T20:43:48.968Z,99894.13
2018-11-10T20:46:14.145Z,99892.25
2018-11-10T20:48:39.278Z,99846.77
2018-11-10T20:51:04.561Z,99886.41
2018-11-10T20:53:29.877Z,99889.94
2018-11-10T20:55:55.036Z,99881.80
2018-11-10T20:58:32.732Z,99875.51
2018-11-10T21:00:57.863Z,99874.89
2018-11-10T21:03:22.956Z,99866.48
2018-11-10T21:05:48.178Z,99864.19
2018-11-10T21:08:13.235Z,99872.98
2018-11-10T21:10:57.311Z,99877.83
2018-11-10T21:13:41.413Z,99876.61
2018-11-10T21:16:06.618Z,99871.06
2018-11-10T21:18:32.023Z,99873.43
2018-11-10T21:20:57.147Z,99874.77
2018-11-10T21:23:22.263Z,99874.91
2018-11-10T21:25:47.416Z,99869.73
2018-11-10T21:28:12.617Z,99868.89
2018-11-10T21:30:37.749Z,99878.86
2018-11-10T21:33:21.814Z,99884.97
2018-11-10T21:36:06.024Z,99883.91
2018-11-10T21:38:31.141Z,99885.82
2018-11-10T21:40:56.243Z,99877.99
2018-11-10T21:43:21.383Z,99883.31
2018-11-10T21:48:23.343Z,99883.62
2018-11-10T21:50:48.483Z,99881.69
2018-11-10T21:53:13.646Z,99883.13
2018-11-10T21:55:38.761Z,99875.58
2018-11-10T21:58:03.873Z,99879.52
2018-11-10T22:00:29.054Z,99871.05
2018-11-10T22:02:54.195Z,99863.14
2018-11-10T22:05:19.807Z,99869.89
2018-11-10T22:07:44.915Z,99866.39
2018-11-10T22:10:12.423Z,99861.27
2018-11-10T22:12:37.570Z,99869.86
2018-11-10T22:15:02.663Z,99866.36
2018-11-10T22:17:27.802Z,99872.09
2018-11-10T22:19:52.890Z,99863.55
2018-11-10T22:22:18.057Z,99864.36
2018-11-10T22:24:43.219Z,99865.94
2018-11-10T22:27:08.353Z,99861.27
2018-11-10T22:29:33.588Z,99866.67
2018-11-10T22:31:58.707Z,99873.32
2018-11-10T22:34:23.830Z,99871.68
2018-11-10T22:37:07.916Z,99866.78
2018-11-10T22:39:33.027Z,99854.28
2018-11-10T22:41:58.183Z,99867.73
2018-11-10T22:44:23.282Z,99873.34
2018-11-10T22:46:48.381Z,99857.84
2018-11-10T22:49:13.509Z,99860.02
2018-11-10T22:51:38.591Z,99854.28
2018-11-10T22:54:03.734Z,99846.17
2018-11-10T22:56:47.836Z,99855.06
2018-11-10T22:59:12.924Z,99864.84
2018-11-10T23:01:37.993Z,99862.14
2018-11-10T23:04:03.213Z,99862.53
2018-11-10T23:06:47.335Z,99858.92
2018-11-10T23:09:31.431Z,99858.34
2018-11-10T23:11:56.606Z,99861.60
2018-11-10T23:14:21.697Z,99858.83
2018-11-10T23:16:46.821Z,99854.38
2018-11-10T23:19:11.940Z,99860.23
2018-11-10T23:21:37.048Z,99859.54
2018-11-10T23:24:02.210Z,99865.47
2018-11-10T23:26:27.332Z,99861.68
2018-11-10T23:28:52.419Z,99852.98
2018-11-10T23:31:17.510Z,99856.59
2018-11-10T23:33:42.642Z,99860.29
2018-11-10T23:36:07.751Z,99860.25
2018-11-10T23:38:32.835Z,99862.30
2018-11-10T23:40:57.956Z,99857.59
2018-11-10T23:43:23.052Z,99859.80
2018-11-10T23:45:48.172Z,99863.11
2018-11-10T23:48:13.331Z,99858.89
2018-11-10T23:50:38.456Z,99863.11
2018-11-10T23:53:03.579Z,99860.88
2018-11-10T23:55:28.674Z,99865.84
2018-11-10T23:57:53.779Z,99874.72
